createdAt,value
2022-12-27T00:00:54.400Z,97927.00
2022-12-27T00:03:21.225Z,97935.00
2022-12-27T00:05:48.348Z,97937.00
2022-12-27T00:08:15.544Z,97930.00
2022-12-27T00:10:42.388Z,97947.00
2022-12-27T00:13:09.133Z,97957.00
2022-12-27T00:15:36.443Z,97942.00
2022-12-27T00:18:03.190Z,97944.00
2022-12-27T00:20:29.941Z,97943.00
2022-12-27T00:22:56.667Z,97944.00
2022-12-27T00:25:23.401Z,97943.00
2022-12-27T00:27:50.121Z,97944.00
2022-12-27T00:30:16.934Z,97951.00
2022-12-27T00:32:43.695Z,97941.00
2022-12-27T00:35:10.453Z,97941.00
2022-12-27T00:37:37.184Z,97942.00
2022-12-27T00:40:04.513Z,97947.00
2022-12-27T00:42:31.299Z,97943.00
2022-12-27T00:44:58.043Z,97949.00
2022-12-27T00:47:24.792Z,97950.00
2022-12-27T00:49:51.531Z,97950.00
2022-12-27T00:52:18.347Z,97948.00
2022-12-27T00:54:45.103Z,97954.00
2022-12-27T00:57:11.970Z,97958.00
2022-12-27T00:59:38.700Z,97959.00
2022-12-27T01:02:05.455Z,97956.00
2022-12-27T01:04:32.270Z,97960.00
2022-12-27T01:06:59.006Z,97959.00
2022-12-27T01:09:25.829Z,97967.00
2022-12-27T01:11:52.568Z,97959.00
2022-12-27T01:14:19.753Z,97958.00
2022-12-27T01:16:47.304Z,97963.00
2022-12-27T01:19:14.784Z,97960.00
2022-12-27T01:21:41.526Z,97958.00
2022-12-27T01:24:08.338Z,97962.00
2022-12-27T01:26:35.091Z,97971.00
2022-12-27T01:29:01.853Z,97967.00
2022-12-27T01:31:28.895Z,97968.00
2022-12-27T01:33:58.032Z,97968.00
2022-12-27T01:36:26.947Z,97967.00
2022-12-27T01:38:53.871Z,97965.00
2022-12-27T01:41:57.086Z,97972.00
2022-12-27T01:44:43.468Z,97973.00
2022-12-27T01:47:29.050Z,97972.00
2022-12-27T01:50:26.354Z,97967.00
2022-12-27T01:53:13.792Z,97974.00
2022-12-27T01:55:59.251Z,97972.00
2022-12-27T01:58:40.804Z,97986.00
2022-12-27T02:01:10.902Z,97990.00
2022-12-27T02:03:43.843Z,97989.00
2022-12-27T02:06:13.360Z,98003.00
2022-12-27T02:09:02.523Z,98008.00
2022-12-27T02:11:51.196Z,98009.00
2022-12-27T02:14:35.900Z,98013.00
2022-12-27T02:17:10.432Z,98010.00
2022-12-27T02:19:48.697Z,98010.00
2022-12-27T02:22:58.589Z,98011.00
2022-12-27T02:25:50.108Z,98013.00
2022-12-27T02:29:12.013Z,98023.00
2022-12-27T02:32:14.100Z,98027.00
2022-12-27T02:34:59.605Z,98034.00
2022-12-27T02:37:31.929Z,98034.00
2022-12-27T02:40:22.431Z,98035.00
2022-12-27T02:43:10.648Z,98033.00
2022-12-27T02:46:38.352Z,98022.00
2022-12-27T02:49:48.535Z,98013.00
2022-12-27T02:53:04.321Z,98023.00
2022-12-27T02:56:04.748Z,98041.00
2022-12-27T02:58:49.311Z,98034.00
2022-12-27T03:02:11.382Z,98039.00
2022-12-27T03:04:56.168Z,98040.00
2022-12-27T03:07:39.961Z,98037.00
2022-12-27T03:10:48.758Z,98033.00
2022-12-27T03:13:36.908Z,98037.00
2022-12-27T03:23:34.222Z,98052.00
2022-12-27T03:26:03.995Z,98059.00
2022-12-27T03:28:50.887Z,98055.00
2022-12-27T03:31:50.637Z,98059.00
2022-12-27T03:34:32.053Z,98059.00
2022-12-27T03:37:33.483Z,98060.00
2022-12-27T03:40:12.827Z,98062.00
2022-12-27T03:43:13.787Z,98059.00
2022-12-27T03:46:14.565Z,98055.00
2022-12-27T03:49:14.473Z,98056.00
2022-12-27T03:52:00.376Z,98058.00
2022-12-27T03:54:32.443Z,98052.00
2022-12-27T03:57:04.660Z,98054.00
2022-12-27T03:59:31.905Z,98053.00
2022-12-27T04:01:58.952Z,98058.00
2022-12-27T04:04:25.783Z,98055.00
2022-12-27T04:06:52.535Z,98054.00
2022-12-27T04:09:37.844Z,98050.00
2022-12-27T04:12:23.401Z,98061.00
2022-12-27T04:15:08.540Z,98057.00
2022-12-27T04:17:53.960Z,98050.00
2022-12-27T04:20:39.723Z,98051.00
2022-12-27T04:23:24.838Z,98052.00
2022-12-27T04:26:10.642Z,98056.00
2022-12-27T04:28:55.940Z,98048.00
2022-12-27T04:31:41.200Z,98049.00
2022-12-27T04:34:26.432Z,98048.00
2022-12-27T04:36:53.370Z,98058.00
2022-12-27T04:39:20.349Z,98055.00
2022-12-27T04:42:05.494Z,98054.00
2022-12-27T04:44:50.801Z,98059.00
2022-12-27T04:47:39.905Z,98052.00
2022-12-27T04:50:49.238Z,98064.00
2022-12-27T04:53:39.911Z,98060.00
2022-12-27T04:56:07.535Z,98059.00
2022-12-27T04:58:35.118Z,98058.00
2022-12-27T05:01:22.814Z,98060.00
2022-12-27T05:03:52.981Z,98063.00
2022-12-27T05:06:19.920Z,98057.00
2022-12-27T05:09:05.639Z,98048.00
2022-12-27T05:11:50.683Z,98056.00
2022-12-27T05:14:17.423Z,98056.00
2022-12-27T05:16:44.928Z,98058.00
2022-12-27T05:19:14.487Z,98069.00
2022-12-27T05:22:03.130Z,98063.00
2022-12-27T05:24:49.153Z,98053.00
2022-12-27T05:27:16.379Z,98064.00
2022-12-27T05:29:43.434Z,98050.00
2022-12-27T05:32:13.246Z,98057.00
2022-12-27T05:34:41.003Z,98058.00
2022-12-27T05:37:08.232Z,98053.00
2022-12-27T05:39:34.974Z,98059.00
2022-12-27T05:42:01.920Z,98065.00
2022-12-27T05:44:28.650Z,98071.00
2022-12-27T05:46:56.162Z,98070.00
2022-12-27T05:49:23.171Z,98071.00
2022-12-27T05:51:49.921Z,98062.00
2022-12-27T05:54:16.955Z,98064.00
2022-12-27T05:56:43.709Z,98063.00
2022-12-27T05:59:10.541Z,98060.00
2022-12-27T06:01:37.404Z,98055.00
2022-12-27T06:04:04.325Z,98061.00
2022-12-27T06:06:31.066Z,98065.00
2022-12-27T06:08:57.842Z,98063.00
2022-12-27T06:11:24.675Z,98063.00
2022-12-27T06:13:53.751Z,98075.00
2022-12-27T06:16:22.379Z,98079.00
2022-12-27T06:18:49.409Z,98083.00
2022-12-27T06:21:20.427Z,98079.00
2022-12-27T06:23:48.034Z,98077.00
2022-12-27T06:26:17.651Z,98080.00
2022-12-27T06:28:44.469Z,98084.00
2022-12-27T06:31:11.899Z,98077.00
2022-12-27T06:33:38.768Z,98092.00
2022-12-27T06:36:10.569Z,98086.00
2022-12-27T06:38:38.167Z,98097.00
2022-12-27T06:41:08.674Z,98095.00
2022-12-27T06:43:36.181Z,98090.00
2022-12-27T06:46:07.075Z,98086.00
2022-12-27T06:48:34.060Z,98101.00
2022-12-27T06:51:05.299Z,98100.00
2022-12-27T06:53:32.251Z,98099.00
2022-12-27T06:56:09.166Z,98102.00
2022-12-27T06:58:36.179Z,98108.00
2022-12-27T07:01:16.504Z,98109.00
2022-12-27T07:03:43.795Z,98108.00
2022-12-27T07:06:11.690Z,98105.00
2022-12-27T07:08:38.704Z,98102.00
2022-12-27T07:11:11.391Z,98100.00
2022-12-27T07:13:41.702Z,98117.00
2022-12-27T07:16:11.357Z,98104.00
2022-12-27T07:18:38.364Z,98108.00
2022-12-27T07:21:07.580Z,98107.00
2022-12-27T07:23:34.550Z,98113.00
2022-12-27T07:26:03.692Z,98108.00
2022-12-27T07:28:31.286Z,98112.00
2022-12-27T07:30:58.178Z,98106.00
2022-12-27T07:33:25.060Z,98109.00
2022-12-27T07:36:00.994Z,98121.00
2022-12-27T07:38:28.246Z,98116.00
2022-12-27T07:40:55.117Z,98122.00
2022-12-27T07:43:21.845Z,98118.00
2022-12-27T07:45:48.642Z,98125.00
2022-12-27T07:48:15.413Z,98134.00
2022-12-27T07:50:42.220Z,98132.00
2022-12-27T07:53:08.986Z,98145.00
2022-12-27T07:55:35.716Z,98140.00
2022-12-27T07:58:02.489Z,98141.00
2022-12-27T08:00:30.070Z,98146.00
2022-12-27T08:02:57.055Z,98140.00
2022-12-27T08:05:27.603Z,98137.00
2022-12-27T08:07:54.936Z,98137.00
2022-12-27T08:10:21.663Z,98133.00
2022-12-27T08:12:48.488Z,98145.00
2022-12-27T08:15:15.260Z,98140.00
2022-12-27T08:17:42.043Z,98141.00
2022-12-27T08:20:14.514Z,98145.00
2022-12-27T08:22:41.272Z,98144.00
2022-12-27T08:25:09.010Z,98148.00
2022-12-27T08:27:35.816Z,98153.00
2022-12-27T08:30:02.571Z,98148.00
2022-12-27T08:32:29.399Z,98142.00
2022-12-27T08:35:07.003Z,98134.00
2022-12-27T08:37:42.892Z,98135.00
2022-12-27T08:40:10.240Z,98140.00
2022-12-27T08:42:36.988Z,98131.00
2022-12-27T08:45:04.164Z,98136.00
2022-12-27T08:47:30.906Z,98134.00
2022-12-27T08:49:57.771Z,98143.00
2022-12-27T08:52:25.589Z,98144.00
2022-12-27T08:54:52.364Z,98142.00
2022-12-27T08:57:19.231Z,98140.00
2022-12-27T08:59:45.938Z,98140.00
2022-12-27T09:02:14.300Z,98136.00
2022-12-27T09:04:41.120Z,98135.00
2022-12-27T09:07:07.878Z,98137.00
2022-12-27T09:09:34.854Z,98150.00
2022-12-27T09:12:04.089Z,98140.00
2022-12-27T09:14:37.680Z,98141.00
2022-12-27T09:17:07.060Z,98140.00
2022-12-27T09:19:33.809Z,98141.00
2022-12-27T09:22:00.607Z,98150.00
2022-12-27T09:24:27.368Z,98156.00
2022-12-27T09:26:54.105Z,98151.00
2022-12-27T09:29:20.964Z,98158.00
2022-12-27T09:31:47.697Z,98154.00
2022-12-27T09:34:14.499Z,98149.00
2022-12-27T09:36:41.477Z,98158.00
2022-12-27T09:39:10.139Z,98156.00
2022-12-27T09:45:01.780Z,98159.00
2022-12-27T09:47:38.729Z,98163.00
2022-12-27T09:50:15.052Z,98156.00
2022-12-27T09:52:56.258Z,98158.00
2022-12-27T09:55:45.000Z,98157.00
2022-12-27T09:58:55.663Z,98156.00
2022-12-27T10:01:36.489Z,98152.00
2022-12-27T10:04:06.337Z,98165.00
2022-12-27T10:06:48.921Z,98154.00
2022-12-27T10:09:49.922Z,98161.00
2022-12-27T10:13:03.128Z,98148.00
2022-12-27T10:16:22.615Z,98154.00
2022-12-27T10:19:15.928Z,98147.00
2022-12-27T10:22:06.044Z,98144.00
2022-12-27T10:24:49.094Z,98148.00
2022-12-27T10:27:21.848Z,98145.00
2022-12-27T10:29:52.344Z,98143.00
2022-12-27T10:32:19.155Z,98145.00
2022-12-27T10:34:48.951Z,98136.00
2022-12-27T10:37:16.573Z,98138.00
2022-12-27T10:39:44.004Z,98140.00
2022-12-27T10:42:48.772Z,98134.00
2022-12-27T10:45:39.453Z,98126.00
2022-12-27T10:48:23.024Z,98133.00
2022-12-27T10:50:59.932Z,98129.00
2022-12-27T10:53:45.090Z,98128.00
2022-12-27T10:56:20.712Z,98137.00
2022-12-27T10:58:56.520Z,98140.00
2022-12-27T11:01:31.188Z,98140.00
2022-12-27T11:04:21.099Z,98137.00
2022-12-27T11:07:02.051Z,98138.00
2022-12-27T11:09:33.002Z,98135.00
2022-12-27T11:12:24.096Z,98136.00
2022-12-27T11:14:59.922Z,98137.00
2022-12-27T11:17:36.352Z,98137.00
2022-12-27T11:20:27.959Z,98143.00
2022-12-27T11:23:01.742Z,98138.00
2022-12-27T11:25:29.823Z,98145.00
2022-12-27T11:28:08.592Z,98137.00
2022-12-27T11:30:39.025Z,98150.00
2022-12-27T11:33:25.123Z,98136.00
2022-12-27T11:35:54.453Z,98131.00
2022-12-27T11:38:33.447Z,98131.00
2022-12-27T11:41:14.223Z,98132.00
2022-12-27T11:43:49.921Z,98125.00
2022-12-27T11:46:40.378Z,98123.00
2022-12-27T11:49:17.515Z,98120.00
2022-12-27T11:52:23.069Z,98117.00
2022-12-27T11:55:37.564Z,98112.00
2022-12-27T11:58:40.145Z,98105.00
2022-12-27T12:01:19.402Z,98097.00
2022-12-27T12:04:42.247Z,98089.00
2022-12-27T12:07:52.054Z,98089.00
2022-12-27T12:10:39.861Z,98084.00
2022-12-27T12:13:38.300Z,98089.00
2022-12-27T12:16:43.303Z,98091.00
2022-12-27T12:20:04.391Z,98093.00
2022-12-27T12:23:11.392Z,98084.00
2022-12-27T12:26:11.612Z,98092.00
2022-12-27T12:29:19.767Z,98091.00
2022-12-27T12:32:19.698Z,98096.00
2022-12-27T12:35:22.928Z,98096.00
2022-12-27T12:38:22.649Z,98097.00
2022-12-27T12:42:00.369Z,98086.00
2022-12-27T12:45:14.010Z,98081.00
2022-12-27T12:48:03.248Z,98088.00
2022-12-27T12:51:14.025Z,98091.00
2022-12-27T12:54:17.977Z,98085.00
2022-12-27T12:57:25.554Z,98085.00
2022-12-27T13:00:32.163Z,98086.00
2022-12-27T13:03:16.575Z,98084.00
2022-12-27T13:06:16.401Z,98081.00
2022-12-27T13:09:03.342Z,98087.00
2022-12-27T13:12:18.104Z,98082.00
2022-12-27T13:15:13.878Z,98073.00
2022-12-27T13:17:59.571Z,98073.00
2022-12-27T13:21:06.010Z,98073.00
2022-12-27T13:23:54.060Z,98067.00
2022-12-27T13:26:52.262Z,98063.00
2022-12-27T13:29:52.606Z,98074.00
2022-12-27T13:33:12.153Z,98068.00
2022-12-27T13:36:25.496Z,98072.00
2022-12-27T13:39:26.037Z,98066.00
2022-12-27T13:42:49.141Z,98061.00
2022-12-27T13:45:47.512Z,98067.00
2022-12-27T13:48:38.400Z,98064.00
2022-12-27T13:51:31.457Z,98068.00
2022-12-27T13:54:37.162Z,98053.00
2022-12-27T13:57:24.510Z,98066.00
2022-12-27T14:00:17.321Z,98069.00
2022-12-27T14:03:06.155Z,98066.00
2022-12-27T14:05:41.710Z,98063.00
2022-12-27T14:09:07.923Z,98068.00
2022-12-27T14:12:50.224Z,98055.00
2022-12-27T14:16:17.300Z,98064.00
2022-12-27T14:19:52.431Z,98060.00
2022-12-27T14:23:29.935Z,98050.00
2022-12-27T14:26:49.575Z,98050.00
2022-12-27T14:30:15.211Z,98062.00
2022-12-27T14:36:50.586Z,98048.00
2022-12-27T14:39:47.409Z,98047.00
2022-12-27T14:43:02.252Z,98051.00
2022-12-27T14:46:11.273Z,98048.00
2022-12-27T14:48:54.952Z,98050.00
2022-12-27T14:55:05.235Z,98044.00
2022-12-27T14:58:10.376Z,98036.00
2022-12-27T15:01:04.858Z,98045.00
2022-12-27T15:04:04.069Z,98038.00
2022-12-27T15:07:17.079Z,98028.00
2022-12-27T15:10:33.904Z,98028.00
2022-12-27T15:13:50.329Z,98033.00
2022-12-27T15:16:38.134Z,98033.00
2022-12-27T15:19:36.205Z,98032.00
2022-12-27T15:22:33.782Z,98027.00
2022-12-27T15:25:29.248Z,98029.00
2022-12-27T15:28:22.671Z,98029.00
2022-12-27T15:30:57.425Z,98022.00
2022-12-27T15:34:04.508Z,98024.00
2022-12-27T15:36:42.645Z,98017.00
2022-12-27T15:39:34.432Z,98010.00
2022-12-27T15:42:38.647Z,97993.00
2022-12-27T15:45:17.584Z,97988.00
2022-12-27T15:48:21.682Z,97988.00
2022-12-27T15:51:07.307Z,97980.00
2022-12-27T15:54:02.953Z,97990.00
2022-12-27T15:56:53.436Z,97981.00
2022-12-27T15:59:51.116Z,97986.00
2022-12-27T16:02:17.898Z,97982.00
2022-12-27T16:04:57.813Z,97989.00
2022-12-27T16:07:47.654Z,97992.00
2022-12-27T16:10:35.325Z,97991.00
2022-12-27T16:13:05.077Z,97994.00
2022-12-27T16:15:34.647Z,97989.00
2022-12-27T16:18:03.453Z,97996.00
2022-12-27T16:20:32.442Z,98007.00
2022-12-27T16:23:06.596Z,98013.00
2022-12-27T16:25:38.710Z,98008.00
2022-12-27T16:28:23.837Z,98008.00
2022-12-27T16:30:56.630Z,98018.00
2022-12-27T16:33:26.433Z,98015.00
2022-12-27T16:36:11.641Z,98023.00
2022-12-27T16:38:57.222Z,98010.00
2022-12-27T16:41:58.971Z,98007.00
2022-12-27T16:44:25.548Z,98014.00
2022-12-27T16:47:04.168Z,98009.00
2022-12-27T16:50:06.302Z,98006.00
2022-12-27T16:53:10.919Z,98022.00
2022-12-27T16:55:47.082Z,98021.00
2022-12-27T16:58:35.148Z,98024.00
2022-12-27T17:01:26.977Z,98005.00
2022-12-27T17:03:58.786Z,98017.00
2022-12-27T17:06:33.479Z,98015.00
2022-12-27T17:09:10.245Z,98007.00
2022-12-27T17:11:50.323Z,98004.00
2022-12-27T17:14:25.176Z,97998.00
2022-12-27T17:17:00.702Z,98002.00
2022-12-27T17:19:39.091Z,97993.00
2022-12-27T17:22:12.852Z,97995.00
2022-12-27T17:24:39.650Z,97986.00
2022-12-27T17:27:42.589Z,97995.00
2022-12-27T17:30:20.956Z,97993.00
2022-12-27T17:33:25.128Z,97998.00
2022-12-27T17:36:09.259Z,97996.00
2022-12-27T17:38:44.414Z,97991.00
2022-12-27T17:41:48.129Z,98001.00
2022-12-27T17:44:51.109Z,97991.00
2022-12-27T17:47:42.758Z,97989.00
2022-12-27T17:50:15.764Z,97988.00
2022-12-27T17:53:00.906Z,97987.00
2022-12-27T17:55:47.750Z,97979.00
2022-12-27T17:58:17.089Z,97974.00
2022-12-27T18:00:59.464Z,97972.00
2022-12-27T18:03:39.562Z,97962.00
2022-12-27T18:06:06.826Z,97960.00
2022-12-27T18:08:34.427Z,97958.00
2022-12-27T18:11:05.026Z,97951.00
2022-12-27T18:13:36.175Z,97946.00
2022-12-27T18:16:37.875Z,97951.00
2022-12-27T18:19:04.885Z,97948.00
2022-12-27T18:21:32.211Z,97940.00
2022-12-27T18:23:59.324Z,97934.00
2022-12-27T18:27:06.741Z,97936.00
2022-12-27T18:29:34.247Z,97935.00
2022-12-27T18:32:05.686Z,97930.00
2022-12-27T18:34:45.729Z,97924.00
2022-12-27T18:37:18.302Z,97929.00
2022-12-27T18:40:04.537Z,97927.00
2022-12-27T18:42:36.557Z,97928.00
2022-12-27T18:45:28.988Z,97925.00
2022-12-27T18:48:00.123Z,97926.00
2022-12-27T18:50:31.090Z,97929.00
2022-12-27T18:53:19.121Z,97936.00
2022-12-27T18:56:23.680Z,97932.00
2022-12-27T18:59:30.659Z,97932.00
2022-12-27T19:02:01.339Z,97928.00
2022-12-27T19:04:32.933Z,97923.00
2022-12-27T19:07:08.195Z,97918.00
2022-12-27T19:10:01.848Z,97914.00
2022-12-27T19:12:37.019Z,97918.00
2022-12-27T19:15:21.708Z,97923.00
2022-12-27T19:17:53.833Z,97917.00
2022-12-27T19:20:28.552Z,97922.00
2022-12-27T19:22:57.839Z,97924.00
2022-12-27T19:25:39.197Z,97916.00
2022-12-27T19:28:27.289Z,97915.00
2022-12-27T19:31:16.281Z,97913.00
2022-12-27T19:33:53.020Z,97915.00
2022-12-27T19:36:30.460Z,97912.00
2022-12-27T19:38:57.734Z,97907.00
2022-12-27T19:41:25.010Z,97900.00
2022-12-27T19:43:51.860Z,97890.00
2022-12-27T19:46:19.652Z,97890.00
2022-12-27T19:48:55.296Z,97880.00
2022-12-27T19:51:33.317Z,97880.00
2022-12-27T19:54:00.145Z,97876.00
2022-12-27T19:56:27.204Z,97887.00
2022-12-27T19:58:55.121Z,97873.00
2022-12-27T20:01:21.916Z,97874.00
2022-12-27T20:03:48.794Z,97868.00
2022-12-27T20:06:23.019Z,97859.00
2022-12-27T20:08:53.413Z,97872.00
2022-12-27T20:11:22.760Z,97872.00
2022-12-27T20:13:50.313Z,97880.00
2022-12-27T20:16:21.678Z,97875.00
2022-12-27T20:18:48.386Z,97870.00
2022-12-27T20:21:18.555Z,97861.00
2022-12-27T20:23:46.804Z,97871.00
2022-12-27T20:26:20.221Z,97867.00
2022-12-27T20:28:47.969Z,97876.00
2022-12-27T20:31:17.576Z,97872.00
2022-12-27T20:33:44.367Z,97873.00
2022-12-27T20:36:11.755Z,97869.00
2022-12-27T20:38:39.562Z,97871.00
2022-12-27T20:41:12.506Z,97875.00
2022-12-27T20:43:40.036Z,97868.00
2022-12-27T20:46:09.590Z,97868.00
2022-12-27T20:48:41.881Z,97858.00
2022-12-27T20:51:21.742Z,97856.00
2022-12-27T20:53:54.587Z,97857.00
2022-12-27T20:56:21.424Z,97857.00
2022-12-27T20:58:48.154Z,97857.00
2022-12-27T21:01:19.044Z,97859.00
2022-12-27T21:03:46.227Z,97858.00
2022-12-27T21:06:17.080Z,97855.00
2022-12-27T21:08:49.117Z,97855.00
2022-12-27T21:11:26.729Z,97840.00
2022-12-27T21:13:53.634Z,97841.00
2022-12-27T21:16:24.373Z,97842.00
2022-12-27T21:18:51.565Z,97845.00
2022-12-27T21:21:21.942Z,97852.00
2022-12-27T21:23:50.073Z,97840.00
2022-12-27T21:26:23.598Z,97838.00
2022-12-27T21:28:50.646Z,97839.00
2022-12-27T21:31:18.146Z,97841.00
2022-12-27T21:33:46.170Z,97833.00
2022-12-27T21:36:16.454Z,97834.00
2022-12-27T21:38:44.159Z,97819.00
2022-12-27T21:41:17.617Z,97823.00
2022-12-27T21:43:45.618Z,97828.00
2022-12-27T21:46:22.902Z,97836.00
2022-12-27T21:48:56.090Z,97839.00
2022-12-27T21:51:23.423Z,97836.00
2022-12-27T21:53:50.386Z,97839.00
2022-12-27T21:56:17.940Z,97827.00
2022-12-27T21:58:45.362Z,97819.00
2022-12-27T22:01:16.870Z,97812.00
2022-12-27T22:03:47.780Z,97816.00
2022-12-27T22:06:21.750Z,97812.00
2022-12-27T22:08:51.897Z,97820.00
2022-12-27T22:11:21.205Z,97814.00
2022-12-27T22:13:48.726Z,97807.00
2022-12-27T22:16:32.434Z,97804.00
2022-12-27T22:18:59.883Z,97809.00
2022-12-27T22:21:31.019Z,97797.00
2022-12-27T22:24:00.318Z,97802.00
2022-12-27T22:26:39.247Z,97805.00
2022-12-27T22:29:06.619Z,97809.00
2022-12-27T22:31:36.508Z,97807.00
2022-12-27T22:34:04.843Z,97806.00
2022-12-27T22:36:31.950Z,97817.00
2022-12-27T22:38:59.681Z,97810.00
2022-12-27T22:41:30.879Z,97796.00
2022-12-27T22:44:03.281Z,97791.00
2022-12-27T22:46:51.333Z,97802.00
2022-12-27T22:49:17.668Z,97793.00
2022-12-27T22:51:44.591Z,97795.00
2022-12-27T22:54:11.350Z,97805.00
2022-12-27T22:56:42.461Z,97801.00
2022-12-27T22:59:13.329Z,97796.00
2022-12-27T23:01:41.827Z,97808.00
2022-12-27T23:04:11.869Z,97798.00
2022-12-27T23:06:39.717Z,97790.00
2022-12-27T23:09:07.590Z,97794.00
2022-12-27T23:11:38.199Z,97787.00
2022-12-27T23:14:10.912Z,97793.00
2022-12-27T23:16:43.167Z,97781.00
2022-12-27T23:19:12.580Z,97792.00
2022-12-27T23:21:39.628Z,97795.00
2022-12-27T23:24:07.562Z,97786.00
2022-12-27T23:26:34.491Z,97783.00
2022-12-27T23:29:01.341Z,97783.00
2022-12-27T23:31:28.400Z,97780.00
2022-12-27T23:33:55.503Z,97765.00
2022-12-27T23:36:22.982Z,97767.00
2022-12-27T23:38:50.072Z,97760.00
2022-12-27T23:41:22.368Z,97769.00
2022-12-27T23:43:55.033Z,97759.00
2022-12-27T23:46:34.028Z,97757.00
2022-12-27T23:49:03.610Z,97756.00
2022-12-27T23:51:32.596Z,97757.00
2022-12-27T23:53:59.547Z,97758.00
2022-12-27T23:56:31.978Z,97752.00
2022-12-27T23:59:00.857Z,97748.00
